sensor_id;sensor_type;location;lat;lon;timestamp;temperature;humidity
50606;DHT22;36557;53.572;10.170;2024-03-08T00:51:32;0.90;99.90
50606;DHT22;36557;53.572;10.170;2024-03-08T00:53:58;0.90;99.90
50606;DHT22;36557;53.572;10.170;2024-03-08T00:56:23;0.80;99.90
50606;DHT22;36557;53.572;10.170;2024-03-08T00:58:50;0.80;99.90
50606;DHT22;36557;53.572;10.170;2024-03-08T01:01:18;0.80;99.90
50606;DHT22;36557;53.572;10.170;2024-03-08T01:03:43;0.80;99.90
50606;DHT22;36557;53.572;10.170;2024-03-08T01:06:09;0.70;99.90
50606;DHT22;36557;53.572;10.170;2024-03-08T01:08:35;0.70;99.90
50606;DHT22;36557;53.572;10.170;2024-03-08T01:11:04;0.70;99.90
50606;DHT22;36557;53.572;10.170;2024-03-08T01:13:30;0.70;99.90
50606;DHT22;36557;53.572;10.170;2024-03-08T01:15:56;0.70;99.90
50606;DHT22;36557;53.572;10.170;2024-03-08T01:18:23;0.60;99.90
50606;DHT22;36557;53.572;10.170;2024-03-08T01:20:49;0.60;99.90
50606;DHT22;36557;53.572;10.170;2024-03-08T01:23:14;0.70;99.90
50606;DHT22;36557;53.572;10.170;2024-03-08T01:25:40;0.70;99.90
50606;DHT22;36557;53.572;10.170;2024-03-08T01:28:07;0.70;99.90
50606;DHT22;36557;53.572;10.170;2024-03-08T01:30:32;0.60;99.90
50606;DHT22;36557;53.572;10.170;2024-03-08T01:33:00;0.60;99.90
50606;DHT22;36557;53.572;10.170;2024-03-08T01:35:25;0.60;99.90
50606;DHT22;36557;53.572;10.170;2024-03-08T01:37:52;0.60;99.90
50606;DHT22;36557;53.572;10.170;2024-03-08T01:40:18;0.50;99.90
50606;DHT22;36557;53.572;10.170;2024-03-08T01:42:45;0.50;99.90
50606;DHT22;36557;53.572;10.170;2024-03-08T01:45:10;0.50;99.90
50606;DHT22;36557;53.572;10.170;2024-03-08T01:47:37;0.50;99.90
50606;DHT22;36557;53.572;10.170;2024-03-08T01:50:03;0.40;99.90
50606;DHT22;36557;53.572;10.170;2024-03-08T01:52:30;0.40;99.90
50606;DHT22;36557;53.572;10.170;2024-03-08T01:55:02;0.40;99.90
50606;DHT22;36557;53.572;10.170;2024-03-08T01:57:29;0.40;99.90
50606;DHT22;36557;53.572;10.170;2024-03-08T01:59:56;0.40;99.90
50606;DHT22;36557;53.572;10.170;2024-03-08T02:02:22;0.30;99.90
50606;DHT22;36557;53.572;10.170;2024-03-08T02:04:48;0.30;99.90
50606;DHT22;36557;53.572;10.170;2024-03-08T02:07:14;0.30;99.90
50606;DHT22;36557;53.572;10.170;2024-03-08T02:09:40;0.20;99.90
50606;DHT22;36557;53.572;10.170;2024-03-08T02:12:06;0.20;99.90
50606;DHT22;36557;53.572;10.170;2024-03-08T02:14:33;0.20;99.90
50606;DHT22;36557;53.572;10.170;2024-03-08T02:17:02;0.20;99.90
50606;DHT22;36557;53.572;10.170;2024-03-08T02:19:28;0.20;99.90
50606;DHT22;36557;53.572;10.170;2024-03-08T02:21:53;0.20;99.90
50606;DHT22;36557;53.572;10.170;2024-03-08T02:24:19;0.20;99.90
50606;DHT22;36557;53.572;10.170;2024-03-08T02:26:45;0.10;99.90
50606;DHT22;36557;53.572;10.170;2024-03-08T02:29:11;0.10;99.90
50606;DHT22;36557;53.572;10.170;2024-03-08T02:31:38;0.00;99.90
50606;DHT22;36557;53.572;10.170;2024-03-08T02:34:04;0.00;99.90
50606;DHT22;36557;53.572;10.170;2024-03-08T02:36:30;0.00;99.90
50606;DHT22;36557;53.572;10.170;2024-03-08T02:39:01;-0.10;99.90
50606;DHT22;36557;53.572;10.170;2024-03-08T02:41:27;-0.10;99.90
50606;DHT22;36557;53.572;10.170;2024-03-08T02:43:53;0.00;99.90
50606;DHT22;36557;53.572;10.170;2024-03-08T02:46:18;-0.10;99.90
50606;DHT22;36557;53.572;10.170;2024-03-08T02:48:44;-0.10;99.90
50606;DHT22;36557;53.572;10.170;2024-03-08T02:51:10;-0.10;99.90
50606;DHT22;36557;53.572;10.170;2024-03-08T02:53:36;-0.10;99.90
50606;DHT22;36557;53.572;10.170;2024-03-08T02:56:03;-0.10;99.90
50606;DHT22;36557;53.572;10.170;2024-03-08T02:58:30;-0.10;99.90
50606;DHT22;36557;53.572;10.170;2024-03-08T03:00:55;-0.10;99.90
50606;DHT22;36557;53.572;10.170;2024-03-08T03:03:22;-0.20;99.90
50606;DHT22;36557;53.572;10.170;2024-03-08T03:05:48;-0.20;99.90
50606;DHT22;36557;53.572;10.170;2024-03-08T03:08:15;-0.10;99.90
50606;DHT22;36557;53.572;10.170;2024-03-08T03:10:43;-0.10;99.90
50606;DHT22;36557;53.572;10.170;2024-03-08T03:13:08;-0.10;99.90
50606;DHT22;36557;53.572;10.170;2024-03-08T03:15:34;-0.10;99.90
50606;DHT22;36557;53.572;10.170;2024-03-08T03:17:59;-0.10;99.90
50606;DHT22;36557;53.572;10.170;2024-03-08T03:20:25;-0.20;99.90
50606;DHT22;36557;53.572;10.170;2024-03-08T03:22:58;-0.20;99.90
50606;DHT22;36557;53.572;10.170;2024-03-08T03:25:23;-0.10;99.90
50606;DHT22;36557;53.572;10.170;2024-03-08T03:27:52;-0.20;99.90
50606;DHT22;36557;53.572;10.170;2024-03-08T03:30:18;-0.20;99.90
50606;DHT22;36557;53.572;10.170;2024-03-08T03:32:47;-0.20;99.90
50606;DHT22;36557;53.572;10.170;2024-03-08T03:35:14;-0.30;99.90
50606;DHT22;36557;53.572;10.170;2024-03-08T03:37:43;-0.30;99.90
50606;DHT22;36557;53.572;10.170;2024-03-08T03:40:16;-0.40;99.90
50606;DHT22;36557;53.572;10.170;2024-03-08T03:42:44;-0.40;99.90
50606;DHT22;36557;53.572;10.170;2024-03-08T03:45:11;-0.40;99.90
50606;DHT22;36557;53.572;10.170;2024-03-08T03:47:36;-0.50;99.90
50606;DHT22;36557;53.572;10.170;2024-03-08T03:50:05;-0.50;99.90
50606;DHT22;36557;53.572;10.170;2024-03-08T03:52:30;-0.50;99.90
50606;DHT22;36557;53.572;10.170;2024-03-08T03:54:56;-0.60;99.90
50606;DHT22;36557;53.572;10.170;2024-03-08T03:57:22;-0.50;99.90
50606;DHT22;36557;53.572;10.170;2024-03-08T03:59:48;-0.50;99.90
50606;DHT22;36557;53.572;10.170;2024-03-08T04:02:14;-0.50;99.90
50606;DHT22;36557;53.572;10.170;2024-03-08T04:04:40;-0.50;99.90
50606;DHT22;36557;53.572;10.170;2024-03-08T04:07:06;-0.60;99.90
50606;DHT22;36557;53.572;10.170;2024-03-08T04:09:31;-0.60;99.90
50606;DHT22;36557;53.572;10.170;2024-03-08T04:11:57;-0.70;99.90
50606;DHT22;36557;53.572;10.170;2024-03-08T04:14:23;-0.70;99.90
50606;DHT22;36557;53.572;10.170;2024-03-08T04:16:49;-0.60;99.90
50606;DHT22;36557;53.572;10.170;2024-03-08T04:19:15;-0.60;99.90
50606;DHT22;36557;53.572;10.170;2024-03-08T04:21:40;-0.50;99.90
50606;DHT22;36557;53.572;10.170;2024-03-08T04:24:07;-0.50;99.90
50606;DHT22;36557;53.572;10.170;2024-03-08T04:26:34;-0.60;99.90
50606;DHT22;36557;53.572;10.170;2024-03-08T04:29:00;-0.60;99.90
50606;DHT22;36557;53.572;10.170;2024-03-08T04:31:25;-0.60;99.90
50606;DHT22;36557;53.572;10.170;2024-03-08T04:33:52;-0.60;99.90
50606;DHT22;36557;53.572;10.170;2024-03-08T04:36:18;-0.70;99.90
50606;DHT22;36557;53.572;10.170;2024-03-08T04:38:45;-0.60;99.90
50606;DHT22;36557;53.572;10.170;2024-03-08T04:41:11;-0.60;99.90
50606;DHT22;36557;53.572;10.170;2024-03-08T04:43:37;-0.60;99.90
50606;DHT22;36557;53.572;10.170;2024-03-08T04:46:02;-0.60;99.90
50606;DHT22;36557;53.572;10.170;2024-03-08T04:48:29;-0.60;99.90
50606;DHT22;36557;53.572;10.170;2024-03-08T04:50:55;-0.70;99.90
50606;DHT22;36557;53.572;10.170;2024-03-08T04:53:21;-0.70;99.90
50606;DHT22;36557;53.572;10.170;2024-03-08T04:55:46;-0.60;99.90
50606;DHT22;36557;53.572;10.170;2024-03-08T04:58:12;-0.60;99.90
50606;DHT22;36557;53.572;10.170;2024-03-08T05:00:38;-0.70;99.90
50606;DHT22;36557;53.572;10.170;2024-03-08T05:03:03;-0.50;99.90
50606;DHT22;36557;53.572;10.170;2024-03-08T05:05:30;-0.60;99.90
50606;DHT22;36557;53.572;10.170;2024-03-08T05:07:56;-0.60;99.90
50606;DHT22;36557;53.572;10.170;2024-03-08T05:10:22;-0.50;99.90
50606;DHT22;36557;53.572;10.170;2024-03-08T05:12:47;-0.60;99.90
50606;DHT22;36557;53.572;10.170;2024-03-08T05:15:13;-0.60;99.90
50606;DHT22;36557;53.572;10.170;2024-03-08T05:17:40;-0.60;99.90
50606;DHT22;36557;53.572;10.170;2024-03-08T05:20:06;-0.60;99.90
50606;DHT22;36557;53.572;10.170;2024-03-08T05:22:36;-0.60;99.90
50606;DHT22;36557;53.572;10.170;2024-03-08T05:25:02;-0.60;99.90
50606;DHT22;36557;53.572;10.170;2024-03-08T05:27:28;-0.60;99.90
50606;DHT22;36557;53.572;10.170;2024-03-08T05:29:53;-0.60;99.90
50606;DHT22;36557;53.572;10.170;2024-03-08T05:32:19;-0.60;99.90
50606;DHT22;36557;53.572;10.170;2024-03-08T05:34:45;-0.60;99.90
50606;DHT22;36557;53.572;10.170;2024-03-08T05:37:11;-0.60;99.90
50606;DHT22;36557;53.572;10.170;2024-03-08T05:39:36;-0.60;99.90
50606;DHT22;36557;53.572;10.170;2024-03-08T05:42:02;-0.60;99.90
50606;DHT22;36557;53.572;10.170;2024-03-08T05:44:28;-0.60;99.90
50606;DHT22;36557;53.572;10.170;2024-03-08T05:46:57;-0.60;99.90
50606;DHT22;36557;53.572;10.170;2024-03-08T05:49:22;-0.60;99.90
50606;DHT22;36557;53.572;10.170;2024-03-08T05:51:50;-0.60;99.90
50606;DHT22;36557;53.572;10.170;2024-03-08T05:54:17;-0.60;99.90
50606;DHT22;36557;53.572;10.170;2024-03-08T05:56:42;-0.60;99.90
50606;DHT22;36557;53.572;10.170;2024-03-08T05:59:09;-0.60;99.90
50606;DHT22;36557;53.572;10.170;2024-03-08T06:01:35;-0.60;99.90
50606;DHT22;36557;53.572;10.170;2024-03-08T06:04:02;-0.50;99.90
50606;DHT22;36557;53.572;10.170;2024-03-08T06:06:28;-0.50;99.90
50606;DHT22;36557;53.572;10.170;2024-03-08T06:08:54;-0.50;99.90
50606;DHT22;36557;53.572;10.170;2024-03-08T06:11:22;-0.60;99.90
50606;DHT22;36557;53.572;10.170;2024-03-08T06:13:48;-0.60;99.90
50606;DHT22;36557;53.572;10.170;2024-03-08T06:16:15;-0.70;99.90
50606;DHT22;36557;53.572;10.170;2024-03-08T06:18:41;-0.70;99.90
50606;DHT22;36557;53.572;10.170;2024-03-08T06:21:07;-0.70;99.90
50606;DHT22;36557;53.572;10.170;2024-03-08T06:23:34;-0.70;99.90
50606;DHT22;36557;53.572;10.170;2024-03-08T06:26:04;-0.60;99.90
50606;DHT22;36557;53.572;10.170;2024-03-08T06:28:30;-0.50;99.90
50606;DHT22;36557;53.572;10.170;2024-03-08T06:30:56;-0.50;99.90
50606;DHT22;36557;53.572;10.170;2024-03-08T06:33:21;-0.50;99.90
50606;DHT22;36557;53.572;10.170;2024-03-08T06:35:47;-0.50;99.90
50606;DHT22;36557;53.572;10.170;2024-03-08T06:38:12;-0.40;99.90
50606;DHT22;36557;53.572;10.170;2024-03-08T06:40:40;-0.50;99.90
50606;DHT22;36557;53.572;10.170;2024-03-08T06:43:06;-0.40;99.90
50606;DHT22;36557;53.572;10.170;2024-03-08T06:45:32;-0.40;99.90
50606;DHT22;36557;53.572;10.170;2024-03-08T06:47:58;-0.30;99.90
50606;DHT22;36557;53.572;10.170;2024-03-08T06:50:24;-0.30;99.90
50606;DHT22;36557;53.572;10.170;2024-03-08T06:52:49;-0.20;99.90
50606;DHT22;36557;53.572;10.170;2024-03-08T06:55:22;-0.20;99.90
50606;DHT22;36557;53.572;10.170;2024-03-08T06:57:47;-0.10;99.90
50606;DHT22;36557;53.572;10.170;2024-03-08T07:00:13;-0.10;99.90
50606;DHT22;36557;53.572;10.170;2024-03-08T07:02:44;0.00;99.90
50606;DHT22;36557;53.572;10.170;2024-03-08T07:05:15;0.00;99.90
50606;DHT22;36557;53.572;10.170;2024-03-08T07:07:42;0.10;99.90
50606;DHT22;36557;53.572;10.170;2024-03-08T07:10:08;0.20;99.90
50606;DHT22;36557;53.572;10.170;2024-03-08T07:12:37;0.20;99.90
50606;DHT22;36557;53.572;10.170;2024-03-08T07:15:05;0.30;99.90
50606;DHT22;36557;53.572;10.170;2024-03-08T07:17:31;0.30;99.90
50606;DHT22;36557;53.572;10.170;2024-03-08T07:19:59;0.40;99.90
50606;DHT22;36557;53.572;10.170;2024-03-08T07:22:33;0.50;99.90
50606;DHT22;36557;53.572;10.170;2024-03-08T07:24:58;0.50;99.90
50606;DHT22;36557;53.572;10.170;2024-03-08T07:27:30;0.60;99.90
50606;DHT22;36557;53.572;10.170;2024-03-08T07:29:55;0.70;99.90
50606;DHT22;36557;53.572;10.170;2024-03-08T07:32:23;0.60;99.90
50606;DHT22;36557;53.572;10.170;2024-03-08T07:34:50;0.70;99.90
50606;DHT22;36557;53.572;10.170;2024-03-08T07:37:17;0.80;99.90
50606;DHT22;36557;53.572;10.170;2024-03-08T07:39:43;0.80;99.90
50606;DHT22;36557;53.572;10.170;2024-03-08T07:42:09;0.80;99.90
50606;DHT22;36557;53.572;10.170;2024-03-08T07:44:36;0.90;99.90
50606;DHT22;36557;53.572;10.170;2024-03-08T07:47:02;1.00;99.90
50606;DHT22;36557;53.572;10.170;2024-03-08T07:49:29;1.00;99.90
50606;DHT22;36557;53.572;10.170;2024-03-08T07:51:55;1.00;99.90
50606;DHT22;36557;53.572;10.170;2024-03-08T07:54:21;1.10;99.90
50606;DHT22;36557;53.572;10.170;2024-03-08T07:56:47;1.10;99.90
50606;DHT22;36557;53.572;10.170;2024-03-08T07:59:13;1.30;99.90
50606;DHT22;36557;53.572;10.170;2024-03-08T08:01:39;1.30;99.90
50606;DHT22;36557;53.572;10.170;2024-03-08T08:04:04;1.30;99.90
50606;DHT22;36557;53.572;10.170;2024-03-08T08:06:30;1.40;99.90
50606;DHT22;36557;53.572;10.170;2024-03-08T08:09:00;1.40;99.90
50606;DHT22;36557;53.572;10.170;2024-03-08T08:11:29;1.60;99.90
50606;DHT22;36557;53.572;10.170;2024-03-08T08:13:55;1.60;99.90
50606;DHT22;36557;53.572;10.170;2024-03-08T08:16:23;1.70;99.90
50606;DHT22;36557;53.572;10.170;2024-03-08T08:18:49;1.90;99.90
50606;DHT22;36557;53.572;10.170;2024-03-08T08:21:15;1.90;99.90
50606;DHT22;36557;53.572;10.170;2024-03-08T08:23:41;2.00;99.90
50606;DHT22;36557;53.572;10.170;2024-03-08T08:26:06;2.00;99.90
50606;DHT22;36557;53.572;10.170;2024-03-08T08:28:33;2.00;99.90
50606;DHT22;36557;53.572;10.170;2024-03-08T08:30:59;2.20;99.90
50606;DHT22;36557;53.572;10.170;2024-03-08T08:33:25;2.40;99.90
50606;DHT22;36557;53.572;10.170;2024-03-08T08:35:51;2.40;99.90
50606;DHT22;36557;53.572;10.170;2024-03-08T08:38:19;2.50;99.90
50606;DHT22;36557;53.572;10.170;2024-03-08T08:40:45;2.70;99.90
50606;DHT22;36557;53.572;10.170;2024-03-08T08:43:13;2.80;99.90
50606;DHT22;36557;53.572;10.170;2024-03-08T08:45:39;2.80;99.90
50606;DHT22;36557;53.572;10.170;2024-03-08T08:48:06;2.80;99.90
50606;DHT22;36557;53.572;10.170;2024-03-08T08:50:32;2.90;99.90
50606;DHT22;36557;53.572;10.170;2024-03-08T08:52:57;3.10;99.90
50606;DHT22;36557;53.572;10.170;2024-03-08T08:55:24;3.20;99.90
50606;DHT22;36557;53.572;10.170;2024-03-08T08:57:52;3.50;99.90
50606;DHT22;36557;53.572;10.170;2024-03-08T09:00:21;3.70;99.90
50606;DHT22;36557;53.572;10.170;2024-03-08T09:02:47;3.60;99.90
50606;DHT22;36557;53.572;10.170;2024-03-08T09:05:16;3.60;99.90
50606;DHT22;36557;53.572;10.170;2024-03-08T09:07:45;3.80;99.90
50606;DHT22;36557;53.572;10.170;2024-03-08T09:10:11;3.70;99.90
50606;DHT22;36557;53.572;10.170;2024-03-08T09:12:40;3.80;99.90
50606;DHT22;36557;53.572;10.170;2024-03-08T09:15:07;3.90;99.90
50606;DHT22;36557;53.572;10.170;2024-03-08T09:17:43;4.00;99.90
50606;DHT22;36557;53.572;10.170;2024-03-08T09:20:10;4.20;99.90
50606;DHT22;36557;53.572;10.170;2024-03-08T18:39:06;5.40;1.00
50606;DHT22;36557;53.572;10.170;2024-03-08T18:41:35;5.40;1.00
50606;DHT22;36557;53.572;10.170;2024-03-08T18:44:02;5.30;1.00
50606;DHT22;36557;53.572;10.170;2024-03-08T18:46:31;5.20;1.00
50606;DHT22;36557;53.572;10.170;2024-03-08T18:48:58;5.20;1.00
50606;DHT22;36557;53.572;10.170;2024-03-08T18:51:25;5.20;1.00
50606;DHT22;36557;53.572;10.170;2024-03-08T18:53:50;5.30;1.00
50606;DHT22;36557;53.572;10.170;2024-03-08T18:56:18;5.20;1.00
50606;DHT22;36557;53.572;10.170;2024-03-08T18:58:43;5.20;1.00
50606;DHT22;36557;53.572;10.170;2024-03-08T19:01:10;5.20;1.00
50606;DHT22;36557;53.572;10.170;2024-03-08T19:03:36;5.10;1.00
50606;DHT22;36557;53.572;10.170;2024-03-08T19:06:04;5.10;1.00
50606;DHT22;36557;53.572;10.170;2024-03-08T19:08:30;5.10;1.00
50606;DHT22;36557;53.572;10.170;2024-03-08T19:10:58;5.10;1.00
50606;DHT22;36557;53.572;10.170;2024-03-08T19:13:24;5.00;1.00
50606;DHT22;36557;53.572;10.170;2024-03-08T19:15:50;5.00;1.00
50606;DHT22;36557;53.572;10.170;2024-03-08T19:18:18;5.10;1.00
50606;DHT22;36557;53.572;10.170;2024-03-08T19:20:44;5.00;1.00
50606;DHT22;36557;53.572;10.170;2024-03-08T19:23:11;5.00;1.00
50606;DHT22;36557;53.572;10.170;2024-03-08T19:25:39;5.00;1.00
50606;DHT22;36557;53.572;10.170;2024-03-08T19:28:11;4.90;1.00
50606;DHT22;36557;53.572;10.170;2024-03-08T19:30:42;4.90;1.00
50606;DHT22;36557;53.572;10.170;2024-03-08T19:33:08;4.90;1.00
50606;DHT22;36557;53.572;10.170;2024-03-08T19:35:36;4.90;1.00
50606;DHT22;36557;53.572;10.170;2024-03-08T19:38:02;4.90;1.00
50606;DHT22;36557;53.572;10.170;2024-03-08T19:40:29;4.80;1.00
50606;DHT22;36557;53.572;10.170;2024-03-08T19:43:01;4.80;1.00
50606;DHT22;36557;53.572;10.170;2024-03-08T19:45:28;4.70;1.00
50606;DHT22;36557;53.572;10.170;2024-03-08T19:48:01;4.60;37.30
50606;DHT22;36557;53.572;10.170;2024-03-08T19:50:30;4.60;60.60
50606;DHT22;36557;53.572;10.170;2024-03-08T19:52:58;4.70;49.20
50606;DHT22;36557;53.572;10.170;2024-03-08T19:55:32;4.70;32.70
50606;DHT22;36557;53.572;10.170;2024-03-08T19:57:59;4.70;15.70
50606;DHT22;36557;53.572;10.170;2024-03-08T20:00:26;4.70;36.50
50606;DHT22;36557;53.572;10.170;2024-03-08T20:02:55;4.70;1.00
50606;DHT22;36557;53.572;10.170;2024-03-08T20:05:22;4.70;1.00
50606;DHT22;36557;53.572;10.170;2024-03-08T20:07:53;4.60;32.90
50606;DHT22;36557;53.572;10.170;2024-03-08T20:10:26;4.60;32.60
50606;DHT22;36557;53.572;10.170;2024-03-08T20:12:52;4.60;41.40
50606;DHT22;36557;53.572;10.170;2024-03-08T20:15:19;4.60;65.20
50606;DHT22;36557;53.572;10.170;2024-03-08T20:17:46;4.60;54.20
50606;DHT22;36557;53.572;10.170;2024-03-08T20:20:14;4.60;57.90
50606;DHT22;36557;53.572;10.170;2024-03-08T20:25:08;4.60;67.80
50606;DHT22;36557;53.572;10.170;2024-03-08T20:27:41;4.60;31.40
50606;DHT22;36557;53.572;10.170;2024-03-08T20:30:13;4.60;16.10
50606;DHT22;36557;53.572;10.170;2024-03-08T20:32:38;4.50;83.80
50606;DHT22;36557;53.572;10.170;2024-03-08T20:35:07;4.60;30.30
50606;DHT22;36557;53.572;10.170;2024-03-08T20:37:32;4.50;77.60
50606;DHT22;36557;53.572;10.170;2024-03-08T20:39:59;4.50;87.90
50606;DHT22;36557;53.572;10.170;2024-03-08T20:42:26;4.50;77.90
50606;DHT22;36557;53.572;10.170;2024-03-08T20:44:53;4.40;99.40
50606;DHT22;36557;53.572;10.170;2024-03-08T20:47:21;4.40;99.90
50606;DHT22;36557;53.572;10.170;2024-03-08T20:49:47;4.40;99.90
50606;DHT22;36557;53.572;10.170;2024-03-08T20:52:15;4.40;99.90
50606;DHT22;36557;53.572;10.170;2024-03-08T20:54:41;4.40;99.90
50606;DHT22;36557;53.572;10.170;2024-03-08T20:57:07;4.30;99.90
50606;DHT22;36557;53.572;10.170;2024-03-08T20:59:34;4.40;99.90
50606;DHT22;36557;53.572;10.170;2024-03-08T21:01:59;4.40;99.90
50606;DHT22;36557;53.572;10.170;2024-03-08T21:04:25;4.20;99.90
50606;DHT22;36557;53.572;10.170;2024-03-08T21:06:53;4.20;99.90
50606;DHT22;36557;53.572;10.170;2024-03-08T21:09:19;4.20;99.90
50606;DHT22;36557;53.572;10.170;2024-03-08T21:11:45;4.30;99.90
50606;DHT22;36557;53.572;10.170;2024-03-08T21:14:10;4.20;99.90
50606;DHT22;36557;53.572;10.170;2024-03-08T21:16:36;4.20;99.90
50606;DHT22;36557;53.572;10.170;2024-03-08T21:19:02;4.20;99.90
50606;DHT22;36557;53.572;10.170;2024-03-08T21:21:27;4.20;99.90
50606;DHT22;36557;53.572;10.170;2024-03-08T21:23:53;4.10;99.90
50606;DHT22;36557;53.572;10.170;2024-03-08T21:26:19;4.10;99.90
50606;DHT22;36557;53.572;10.170;2024-03-08T21:28:45;4.10;99.90
50606;DHT22;36557;53.572;10.170;2024-03-08T21:31:11;4.00;99.90
50606;DHT22;36557;53.572;10.170;2024-03-08T21:33:37;4.00;99.90
50606;DHT22;36557;53.572;10.170;2024-03-08T21:36:03;4.00;99.90
50606;DHT22;36557;53.572;10.170;2024-03-08T21:38:29;4.10;99.90
50606;DHT22;36557;53.572;10.170;2024-03-08T21:40:55;4.00;99.90
50606;DHT22;36557;53.572;10.170;2024-03-08T21:43:20;3.90;99.90
50606;DHT22;36557;53.572;10.170;2024-03-08T21:45:47;4.00;99.90
50606;DHT22;36557;53.572;10.170;2024-03-08T21:48:12;3.90;99.90
50606;DHT22;36557;53.572;10.170;2024-03-08T21:50:40;3.80;99.90
50606;DHT22;36557;53.572;10.170;2024-03-08T21:53:05;3.90;99.90
50606;DHT22;36557;53.572;10.170;2024-03-08T21:55:37;3.90;99.90
50606;DHT22;36557;53.572;10.170;2024-03-08T21:58:02;3.80;99.90
50606;DHT22;36557;53.572;10.170;2024-03-08T22:00:30;3.70;99.90
50606;DHT22;36557;53.572;10.170;2024-03-08T22:02:58;3.80;99.90
50606;DHT22;36557;53.572;10.170;2024-03-08T22:05:25;3.80;99.90
50606;DHT22;36557;53.572;10.170;2024-03-08T22:07:52;3.70;99.90
50606;DHT22;36557;53.572;10.170;2024-03-08T22:10:19;3.70;99.90
50606;DHT22;36557;53.572;10.170;2024-03-08T22:12:48;3.70;99.90
50606;DHT22;36557;53.572;10.170;2024-03-08T22:15:14;3.70;99.90
50606;DHT22;36557;53.572;10.170;2024-03-08T22:17:44;3.70;99.90
50606;DHT22;36557;53.572;10.170;2024-03-08T22:20:13;3.70;99.90
50606;DHT22;36557;53.572;10.170;2024-03-08T22:22:52;3.70;99.90
50606;DHT22;36557;53.572;10.170;2024-03-08T22:25:19;3.60;1.00
50606;DHT22;36557;53.572;10.170;2024-03-08T22:27:46;3.50;1.00
50606;DHT22;36557;53.572;10.170;2024-03-08T22:30:24;3.50;1.00
50606;DHT22;36557;53.572;10.170;2024-03-08T22:32:51;3.50;1.00
50606;DHT22;36557;53.572;10.170;2024-03-08T22:35:20;3.50;1.00
50606;DHT22;36557;53.572;10.170;2024-03-08T22:37:46;3.50;1.00
50606;DHT22;36557;53.572;10.170;2024-03-08T22:40:13;3.50;1.00
50606;DHT22;36557;53.572;10.170;2024-03-08T22:42:42;3.40;1.00
50606;DHT22;36557;53.572;10.170;2024-03-08T22:45:09;3.50;1.00
50606;DHT22;36557;53.572;10.170;2024-03-08T22:47:44;3.50;1.00
50606;DHT22;36557;53.572;10.170;2024-03-08T22:50:13;3.40;1.00
50606;DHT22;36557;53.572;10.170;2024-03-08T22:52:39;3.40;1.00
50606;DHT22;36557;53.572;10.170;2024-03-08T22:55:10;3.40;1.00
50606;DHT22;36557;53.572;10.170;2024-03-08T22:57:40;3.30;1.00
50606;DHT22;36557;53.572;10.170;2024-03-08T23:00:09;3.30;1.00
50606;DHT22;36557;53.572;10.170;2024-03-08T23:02:56;3.30;1.00
50606;DHT22;36557;53.572;10.170;2024-03-08T23:05:22;3.20;1.00
50606;DHT22;36557;53.572;10.170;2024-03-08T23:07:48;3.20;1.00
50606;DHT22;36557;53.572;10.170;2024-03-08T23:10:14;3.20;1.00
50606;DHT22;36557;53.572;10.170;2024-03-08T23:12:41;3.20;1.00
50606;DHT22;36557;53.572;10.170;2024-03-08T23:15:07;3.20;1.00
50606;DHT22;36557;53.572;10.170;2024-03-08T23:17:46;3.10;1.00
50606;DHT22;36557;53.572;10.170;2024-03-08T23:20:16;3.10;11.20
50606;DHT22;36557;53.572;10.170;2024-03-08T23:22:42;3.00;42.90
50606;DHT22;36557;53.572;10.170;2024-03-08T23:25:22;3.00;41.90
50606;DHT22;36557;53.572;10.170;2024-03-08T23:27:49;3.00;64.80
50606;DHT22;36557;53.572;10.170;2024-03-08T23:30:17;3.00;68.10
50606;DHT22;36557;53.572;10.170;2024-03-08T23:32:46;3.00;24.90
50606;DHT22;36557;53.572;10.170;2024-03-08T23:35:12;3.10;1.00
50606;DHT22;36557;53.572;10.170;2024-03-08T23:37:41;3.00;17.20
50606;DHT22;36557;53.572;10.170;2024-03-08T23:40:12;3.00;14.60
50606;DHT22;36557;53.572;10.170;2024-03-08T23:42:42;3.10;1.00
50606;DHT22;36557;53.572;10.170;2024-03-08T23:45:08;3.00;23.90
50606;DHT22;36557;53.572;10.170;2024-03-08T23:47:45;3.00;8.00
50606;DHT22;36557;53.572;10.170;2024-03-08T23:50:12;2.90;35.10
50606;DHT22;36557;53.572;10.170;2024-03-08T23:52:43;2.90;60.40
50606;DHT22;36557;53.572;10.170;2024-03-08T23:55:12;2.80;99.50
50606;DHT22;36557;53.572;10.170;2024-03-08T23:57:43;2.90;94.60
